ETSIEDDS

Guest
Details From ETSI - Ingolstadt Manching
To EDDS - Stuttgart
Flight Number -
Tags decoded
Created
Modified
Stats Distance 92 nm / 170 km
Max Altitude 0 ft / 0 m
Waypoints 2
Social Downloads 0
Likes 0
Share VATSIM

Download

Looking for another format? Having issues loading an existing format? Contact us
Advertisement - Login to hide

Notes

Requested: ETSI EDDS

Route

ETSI EDDS

ID Type Via Altitude Latitude Longitude Leg Dist Tot Dist Heading (true) Name
O ETSI APT - 0 ft / 0 m 48.71509˚ 11.53406˚ - 0 nm - Ingolstadt Manching
O EDDS APT - 0 ft / 0 m 48.68988˚ 9.22196˚ 91 nm 91 nm 270° / 268° Stuttgart

Altitude Profile

Advertisement - Login to hide

ETSI

Details ICAO ETSI
Name Ingolstadt Manching
Region Germany - Military
Timezone Europe/Berlin (UTC+1.0)
Stats Elevation 1,202 ft / 366 m (AMSL)
Location 48.715095° 11.534059°
Runways 2
Magnetic Variation 3.111° E

METAR

ETSI 131020Z 23005KT 9999 FEW060 03/M03 Q1016 BLU+BLU+

Decode

TAF

Not found

Departure Runways

ID Width Length Bearing (true) Bearing (mag) Surface Threshold Offset Overrun Length
07L 98 ft / 30 m 7,983 ft / 2,433 m 67.94° 64.83° Concrete 0 ft / 0 m 1,506 ft / 459 m
07R 197 ft / 60 m 9,642 ft / 2,939 m 68.14° 65.03° Asphalt 0 ft / 0 m 1,066 ft / 325 m
25L 197 ft / 60 m 9,642 ft / 2,939 m 248.17° 245.06° Asphalt 0 ft / 0 m 1,066 ft / 325 m
25R 98 ft / 30 m 7,983 ft / 2,433 m 247.97° 244.86° Concrete 602 ft / 183 m 1,050 ft / 320 m

EDDS

Details ICAO EDDS (STR)
Name Stuttgart
Region Germany - Civil
Timezone Europe/Berlin (UTC+1.0)
Stats Elevation 1,273 ft / 388 m (AMSL)
Location 48.689876° 9.221962°
Runways 1
Magnetic Variation 2.523° E

METAR

EDDS 131050Z 20009KT 170V230 CAVOK 04/M03 Q1012 NOSIG

Decode

TAF

TAF TAF EDDS 130500Z 1306/1406 20005KT CAVOK BECMG 1312/1314 20010KT TEMPO 1315/1406 22015G25KT TEMPO 1315/1318 RASN TEMPO 1321/1402 RA TEMPO 1402/1406 23020G35KT SHRA BKN020CB

Decode

Destination Runways

ID Width Length Bearing (true) Bearing (mag) Surface Threshold Offset Overrun Length
07 148 ft / 45 m 10,950 ft / 3,337 m 73.96° 71.44° Concrete 981 ft / 299 m 157 ft / 48 m
25 148 ft / 45 m 10,950 ft / 3,337 m 253.99° 251.47° Concrete 0 ft / 0 m 157 ft / 48 m

Approach Navaids

Runway Type Ident Frequency Range Bearing (true) Bearing (mag) Slope Elevation
07 Localiser ISTE 110.90 MHz 18 nm / 33 km 73.99° 71.47° - 1,181 ft / 360 m (AMSL)
07 Glidescope ISTE 110.90 MHz 10 nm / 19 km 73.97° 71.45° 3.00° 1,267 ft / 386 m (AMSL)
07 DME ISTE 115.45 MHz 18 nm / 33 km - - - 1,332 ft / 406 m (AMSL)
25 Localiser ISTW 109.90 MHz 18 nm / 33 km 253.95° 251.42° - 1,267 ft / 386 m (AMSL)
25 Glidescope ISTW 109.90 MHz 10 nm / 19 km 253.97° 251.45° 3.00° 1,181 ft / 360 m (AMSL)
25 DME ISTW 115.45 MHz 18 nm / 33 km - - - 1,332 ft / 406 m (AMSL)

Popular Alternatives